Time;durP1;ratioP1;P1;durP2;ratioP2;P2;SDS_P1;SDS_P2;PMS_P1;PMS_P2;Temp;Humidity;BMP_temperature;BMP_pressure;BME280_temperature;BME280_humidity;BME280_pressure;Samples;Min_cycle;Max_cycle;Signal;HPM_P1;HPM_P2
2024/01/24 00:01:13;;;;;;;7.90;4.72;;;4.90;99.90;;;;;;6165149;23;20181;-83
2024/01/24 00:03:39;;;;;;;14.30;4.75;;;4.90;99.90;;;;;;6164370;23;20643;-83
2024/01/24 00:06:07;;;;;;;11.45;3.80;;;4.90;99.90;;;;;;6164282;23;20231;-83
2024/01/24 00:08:34;;;;;;;6.78;3.20;;;5.00;99.90;;;;;;6165059;23;20199;-83
2024/01/24 00:11:03;;;;;;;11.55;3.35;;;5.00;99.90;;;;;;6167161;23;20240;-83
2024/01/24 00:13:30;;;;;;;9.43;4.40;;;5.00;99.90;;;;;;6171917;23;20187;-82
2024/01/24 00:15:59;;;;;;;8.23;3.63;;;5.00;99.90;;;;;;6172290;23;20201;-83
2024/01/24 00:18:26;;;;;;;7.97;3.08;;;5.10;99.90;;;;;;6165719;23;20224;-83
2024/01/24 00:20:55;;;;;;;7.38;3.50;;;5.10;99.90;;;;;;6165857;23;20203;-84
2024/01/24 00:23:23;;;;;;;10.07;4.07;;;5.10;99.90;;;;;;6165034;23;20259;-84
2024/01/24 00:25:49;;;;;;;12.50;4.53;;;5.20;99.90;;;;;;6164486;23;20670;-84
2024/01/24 00:28:18;;;;;;;10.88;4.68;;;5.20;99.90;;;;;;6165583;23;20255;-84
2024/01/24 00:30:45;;;;;;;9.45;3.35;;;5.20;99.90;;;;;;6164582;23;20180;-84
2024/01/24 00:33:12;;;;;;;8.57;3.17;;;5.20;99.90;;;;;;6164437;23;20255;-84
2024/01/24 00:35:39;;;;;;;5.88;3.60;;;5.20;99.90;;;;;;6167512;23;20236;-83
2024/01/24 00:38:06;;;;;;;6.00;3.20;;;5.20;1.00;;;;;;6175770;23;20243;-82
2024/01/24 00:40:33;;;;;;;8.57;2.88;;;5.30;1.00;;;;;;6160775;23;20187;-83
2024/01/24 00:43:00;;;;;;;5.47;3.28;;;5.30;1.00;;;;;;6161368;23;20276;-84
2024/01/24 00:45:28;;;;;;;6.70;3.13;;;5.30;1.00;;;;;;6161596;23;20197;-83
2024/01/24 00:47:55;;;;;;;5.32;2.80;;;5.30;1.00;;;;;;6163681;23;20540;-83
2024/01/24 00:50:22;;;;;;;7.18;3.03;;;5.30;1.00;;;;;;6163205;23;20180;-83
2024/01/24 00:52:51;;;;;;;4.00;2.25;;;5.40;1.00;;;;;;6163547;23;20184;-84
2024/01/24 00:55:19;;;;;;;7.68;2.55;;;5.40;1.00;;;;;;6163385;23;20200;-83
2024/01/24 00:57:45;;;;;;;6.50;3.15;;;5.40;1.00;;;;;;6163191;23;20192;-84
2024/01/24 01:00:13;;;;;;;8.98;2.80;;;5.40;1.00;;;;;;6163748;23;20188;-83
2024/01/24 01:02:42;;;;;;;6.45;3.55;;;5.40;1.00;;;;;;6163335;23;20177;-83
2024/01/24 01:05:09;;;;;;;3.78;2.80;;;5.50;1.00;;;;;;6171616;23;20182;-82
2024/01/24 01:07:36;;;;;;;8.10;4.70;;;5.50;1.00;;;;;;6176667;23;20176;-83
2024/01/24 01:10:02;;;;;;;8.38;2.88;;;5.50;1.00;;;;;;6176348;23;20172;-83
2024/01/24 01:12:30;;;;;;;4.53;3.13;;;5.50;1.00;;;;;;6176870;23;20240;-84
2024/01/24 01:14:57;;;;;;;10.75;2.95;;;5.50;1.00;;;;;;6177879;23;20184;-83
2024/01/24 01:17:24;;;;;;;9.10;3.15;;;5.50;1.00;;;;;;6177660;23;20191;-83
2024/01/24 01:19:52;;;;;;;7.00;3.05;;;5.60;1.00;;;;;;6178678;23;20211;-83
2024/01/24 01:22:20;;;;;;;10.27;3.20;;;5.60;1.00;;;;;;6175780;23;20212;-83
2024/01/24 01:24:47;;;;;;;4.10;1.90;;;5.60;1.00;;;;;;6168190;23;20211;-84
2024/01/24 01:27:20;;;;;;;5.30;2.17;;;5.60;1.00;;;;;;6181798;22;20213;-89
2024/01/24 01:29:49;;;;;;;4.40;1.88;;;5.70;1.00;;;;;;6243737;22;20175;-90
2024/01/24 01:32:18;;;;;;;5.00;1.95;;;6.00;1.00;;;;;;6243823;22;20170;-90
2024/01/24 01:34:54;;;;;;;4.80;1.90;;;5.80;1.00;;;;;;6243697;22;20167;-90
2024/01/24 01:37:41;;;;;;;3.15;1.95;;;5.80;1.00;;;;;;6243311;22;20216;-89
2024/01/24 01:40:24;;;;;;;2.50;2.00;;;5.80;1.00;;;;;;6243730;22;20171;-90
2024/01/24 01:42:52;;;;;;;2.67;1.77;;;5.90;1.00;;;;;;6243756;22;20182;-91
2024/01/24 01:45:32;;;;;;;2.10;2.00;;;5.90;1.00;;;;;;6238350;22;20181;-90
2024/01/24 01:48:00;;;;;;;5.55;2.45;;;5.90;1.00;;;;;;6233258;23;20199;-90
2024/01/24 01:50:29;;;;;;;2.65;2.10;;;6.10;1.00;;;;;;6243526;22;20151;-90
2024/01/24 01:52:59;;;;;;;3.67;1.65;;;6.00;1.00;;;;;;6243195;22;20205;-90
2024/01/24 01:55:32;;;;;;;1.63;1.52;;;5.90;1.00;;;;;;6241452;22;20155;-90
2024/01/24 01:58:24;;;;;;;1.83;1.70;;;6.00;1.00;;;;;;6232935;23;20225;-92
2024/01/24 02:01:06;;;;;;;6.80;2.25;;;6.00;1.00;;;;;;6243835;22;20151;-91
2024/01/24 02:03:36;;;;;;;5.50;2.90;;;5.90;1.00;;;;;;6243923;22;20163;-91
2024/01/24 02:06:14;;;;;;;5.93;3.67;;;6.10;1.10;;;;;;6225183;23;20181;-91
2024/01/24 02:19:10;;;;;;;7.78;2.45;;;6.10;37.80;;;;;;6159276;23;20563;-90
2024/01/24 02:22:23;;;;;;;;;;;;;;;;;;;;;
2024/01/24 02:25:32;;;;;;;2.25;1.63;;;6.10;60.40;;;;;;6193153;23;20177;-92
2024/01/24 02:28:22;;;;;;;2.10;1.90;;;6.20;75.90;;;;;;6235509;23;20206;-91
2024/01/24 02:31:44;;;;;;;3.92;1.77;;;6.30;86.00;;;;;;6242994;23;20175;-91
2024/01/24 02:41:37;;;;;;;2.22;2.08;;;6.40;99.90;;;;;;6230413;23;20241;-91
2024/01/24 02:44:24;;;;;;;2.13;1.92;;;6.40;99.90;;;;;;6227403;23;20178;-91
2024/01/24 02:53:19;;;;;;;4.53;2.00;;;6.50;93.10;;;;;;6135620;23;20224;-91
2024/01/24 02:58:52;;;;;;;2.88;2.60;;;6.60;93.90;;;;;;6187174;23;20192;-92
2024/01/24 03:01:23;;;;;;;5.65;2.03;;;6.60;97.40;;;;;;6206282;23;20164;-91
2024/01/24 03:03:50;;;;;;;3.50;2.20;;;6.60;95.80;;;;;;6200741;23;20229;-83
2024/01/24 03:06:17;;;;;;;3.28;2.53;;;6.70;98.00;;;;;;6236040;23;20191;-83
2024/01/24 03:08:48;;;;;;;2.80;2.53;;;6.70;98.70;;;;;;6235666;23;20649;-83
2024/01/24 03:11:16;;;;;;;3.42;3.10;;;6.80;99.00;;;;;;6231755;23;20179;-83
2024/01/24 03:13:43;;;;;;;2.65;2.30;;;6.80;90.70;;;;;;6227504;23;20199;-84
2024/01/24 03:16:10;;;;;;;2.15;1.95;;;6.80;91.10;;;;;;6233535;23;20178;-83
2024/01/24 03:18:38;;;;;;;3.97;2.30;;;6.80;85.30;;;;;;6235155;23;20206;-83
2024/01/24 03:21:06;;;;;;;2.80;2.60;;;6.90;85.10;;;;;;6238450;23;20182;-83
2024/01/24 03:23:32;;;;;;;3.17;2.60;;;6.90;41.20;;;;;;6234652;23;20195;-83
2024/01/24 03:26:00;;;;;;;2.10;1.90;;;6.90;33.50;;;;;;6224081;23;20175;-83
2024/01/24 03:28:28;;;;;;;3.47;2.28;;;7.00;29.30;;;;;;6222162;23;20676;-83
2024/01/24 03:30:54;;;;;;;2.38;2.17;;;7.00;27.10;;;;;;6221202;23;20199;-83
2024/01/24 03:33:22;;;;;;;2.53;2.20;;;7.10;26.50;;;;;;6220247;23;20240;-83
2024/01/24 03:35:49;;;;;;;3.08;2.13;;;7.10;21.70;;;;;;6220233;23;20182;-83
2024/01/24 03:38:16;;;;;;;2.00;1.90;;;7.20;8.20;;;;;;6222298;23;20697;-84
2024/01/24 03:40:43;;;;;;;2.40;2.20;;;7.20;1.00;;;;;;6222448;23;20179;-84
2024/01/24 03:43:11;;;;;;;4.90;2.17;;;7.20;1.00;;;;;;6222796;23;20226;-83
2024/01/24 03:45:39;;;;;;;2.05;1.85;;;7.20;1.00;;;;;;6224160;23;20466;-82
2024/01/24 03:48:07;;;;;;;3.20;2.50;;;7.30;1.00;;;;;;6228986;23;20182;-83
2024/01/24 03:50:34;;;;;;;6.57;3.08;;;7.30;1.00;;;;;;6226213;23;20179;-83
2024/01/24 03:53:01;;;;;;;4.22;1.80;;;7.30;1.00;;;;;;6225678;23;20254;-83
2024/01/24 03:55:29;;;;;;;1.85;1.65;;;7.40;1.00;;;;;;6226197;23;20199;-83
2024/01/24 03:57:56;;;;;;;2.75;2.22;;;7.40;1.00;;;;;;6226988;23;20230;-83
2024/01/24 04:00:23;;;;;;;3.80;1.90;;;7.40;1.00;;;;;;6228486;23;20179;-83
2024/01/24 04:02:51;;;;;;;4.97;2.05;;;7.40;1.00;;;;;;6226315;23;20412;-83
2024/01/24 04:05:18;;;;;;;10.63;2.20;;;7.50;1.00;;;;;;6226471;23;20207;-84
2024/01/24 04:07:45;;;;;;;2.73;2.00;;;7.50;1.00;;;;;;6225810;23;20562;-83
2024/01/24 04:10:12;;;;;;;3.45;1.95;;;7.60;1.00;;;;;;6225921;23;20463;-83
2024/01/24 04:12:39;;;;;;;5.60;1.90;;;7.50;1.00;;;;;;6226195;23;20234;-84
2024/01/24 04:15:07;;;;;;;4.03;2.33;;;7.60;1.00;;;;;;6225421;23;20282;-83
2024/01/24 04:17:33;;;;;;;4.40;1.70;;;7.60;1.00;;;;;;6226313;23;20171;-83
2024/01/24 04:20:02;;;;;;;3.37;2.30;;;7.60;17.00;;;;;;6228007;23;20438;-84
2024/01/24 04:22:28;;;;;;;4.93;2.23;;;7.60;10.30;;;;;;6238483;23;20380;-83
2024/01/24 04:24:55;;;;;;;6.05;2.95;;;7.70;17.80;;;;;;6237316;23;20489;-82
2024/01/24 04:27:23;;;;;;;2.47;1.95;;;7.70;14.40;;;;;;6231108;23;20198;-83
2024/01/24 04:29:50;;;;;;;1.92;1.60;;;7.70;19.80;;;;;;6231320;23;20175;-83
2024/01/24 04:32:17;;;;;;;4.50;2.00;;;7.80;29.80;;;;;;6230219;23;20209;-83
2024/01/24 04:34:43;;;;;;;2.90;2.53;;;7.90;40.80;;;;;;6227504;23;20421;-83
2024/01/24 04:37:12;;;;;;;2.78;2.20;;;7.80;24.00;;;;;;6227052;23;20381;-84
2024/01/24 04:39:38;;;;;;;3.53;1.97;;;7.80;23.60;;;;;;6227175;23;20725;-83
2024/01/24 04:42:05;;;;;;;3.17;2.60;;;7.90;33.40;;;;;;6228397;23;20440;-83
2024/01/24 04:44:33;;;;;;;3.60;2.13;;;7.90;34.80;;;;;;6227686;23;20409;-83
2024/01/24 04:47:01;;;;;;;5.00;1.97;;;8.00;38.40;;;;;;6225027;23;20452;-84
2024/01/24 04:49:27;;;;;;;2.20;2.00;;;8.10;41.30;;;;;;6226140;23;20410;-83
2024/01/24 04:51:54;;;;;;;7.20;2.27;;;8.10;33.50;;;;;;6225417;23;20408;-84
2024/01/24 04:54:22;;;;;;;6.60;2.20;;;8.20;22.00;;;;;;6226649;23;21035;-83
2024/01/24 04:56:49;;;;;;;2.10;2.00;;;8.30;18.30;;;;;;6224472;23;20406;-84
2024/01/24 04:59:16;;;;;;;4.33;2.13;;;8.30;11.00;;;;;;6223055;23;20442;-84
2024/01/24 05:01:43;;;;;;;1.87;1.70;;;8.40;14.00;;;;;;6223073;23;20662;-84
2024/01/24 05:04:11;;;;;;;2.90;2.37;;;8.50;6.30;;;;;;6222621;23;20443;-83
2024/01/24 05:06:38;;;;;;;3.33;1.57;;;8.60;1.00;;;;;;6225122;23;20700;-83
2024/01/24 05:09:07;;;;;;;3.00;2.07;;;8.60;1.00;;;;;;6228289;23;20381;-83
2024/01/24 05:11:35;;;;;;;6.53;1.67;;;8.70;1.00;;;;;;6237685;23;20402;-84
2024/01/24 05:14:02;;;;;;;2.43;1.40;;;8.60;1.00;;;;;;6225268;23;20477;-84
2024/01/24 05:16:29;;;;;;;4.27;2.07;;;8.70;1.00;;;;;;6225972;23;20753;-84
2024/01/24 05:18:57;;;;;;;6.43;2.00;;;8.70;1.00;;;;;;6224492;23;20468;-83
2024/01/24 05:21:26;;;;;;;4.50;1.73;;;8.80;1.00;;;;;;6224525;23;20501;-83
2024/01/24 05:23:53;;;;;;;1.93;1.70;;;8.80;1.00;;;;;;6224307;23;20422;-83
2024/01/24 05:26:20;;;;;;;3.17;2.00;;;8.90;1.00;;;;;;6224314;23;20835;-83
2024/01/24 05:28:48;;;;;;;3.87;1.70;;;8.90;1.00;;;;;;6230904;23;20384;-83
2024/01/24 05:31:17;;;;;;;2.10;1.77;;;8.90;1.00;;;;;;6236718;23;20430;-83
2024/01/24 05:33:44;;;;;;;4.50;2.60;;;9.00;1.00;;;;;;6230050;23;20397;-82
2024/01/24 05:36:10;;;;;;;2.10;1.90;;;9.00;1.00;;;;;;6236550;23;20437;-83
2024/01/24 05:38:40;;;;;;;1.90;1.60;;;8.90;1.00;;;;;;6234487;23;20381;-83
2024/01/24 05:41:07;;;;;;;1.70;1.60;;;9.00;1.00;;;;;;6233289;23;20943;-83
2024/01/24 05:43:34;;;;;;;2.43;1.90;;;9.00;1.00;;;;;;6232266;23;20415;-83
2024/01/24 05:46:02;;;;;;;1.70;1.60;;;9.00;1.00;;;;;;6233365;23;20404;-83
2024/01/24 05:48:29;;;;;;;2.00;1.80;;;9.00;1.00;;;;;;6232175;23;20413;-84
2024/01/24 05:50:56;;;;;;;3.40;1.67;;;9.10;1.00;;;;;;6228189;23;20468;-83
2024/01/24 05:53:23;;;;;;;1.73;1.10;;;9.10;1.00;;;;;;6223857;23;20410;-83
2024/01/24 05:55:50;;;;;;;1.33;1.20;;;9.10;1.00;;;;;;6222283;23;20460;-83
2024/01/24 05:58:16;;;;;;;2.70;1.90;;;9.20;1.00;;;;;;6223489;23;20384;-84
2024/01/24 06:00:43;;;;;;;1.50;1.40;;;9.20;1.00;;;;;;6233277;23;20931;-83
2024/01/24 06:03:13;;;;;;;2.00;1.70;;;9.20;1.00;;;;;;6222653;23;20453;-83
2024/01/24 06:05:40;;;;;;;1.87;1.70;;;9.30;1.00;;;;;;6174528;23;1164619;-84
2024/01/24 06:08:07;;;;;;;1.67;1.57;;;9.40;1.00;;;;;;6226698;23;20187;-84
2024/01/24 06:10:34;;;;;;;2.30;2.13;;;9.30;1.00;;;;;;6229977;23;20432;-84
2024/01/24 06:13:01;;;;;;;2.63;1.83;;;9.30;17.70;;;;;;6235261;23;20398;-83
2024/01/24 06:15:28;;;;;;;5.13;2.13;;;9.20;58.90;;;;;;6235173;23;20397;-83
2024/01/24 06:17:55;;;;;;;2.23;1.70;;;9.20;93.90;;;;;;6227627;23;20418;-84
2024/01/24 06:20:23;;;;;;;2.40;2.20;;;9.20;99.90;;;;;;6232480;23;20412;-84
2024/01/24 06:22:50;;;;;;;3.97;2.00;;;9.20;99.90;;;;;;6225524;23;20408;-84
2024/01/24 06:25:17;;;;;;;7.03;2.27;;;9.20;99.90;;;;;;6223675;23;20472;-83
2024/01/24 06:27:45;;;;;;;5.57;3.00;;;9.20;99.90;;;;;;6229808;23;20412;-83
2024/01/24 06:30:13;;;;;;;3.57;2.07;;;9.30;99.90;;;;;;6227738;23;20863;-83
2024/01/24 06:32:40;;;;;;;1.80;1.40;;;9.30;99.90;;;;;;6228919;23;20394;-83
2024/01/24 06:35:08;;;;;;;3.10;1.50;;;9.30;99.90;;;;;;6226903;23;20404;-84
2024/01/24 06:37:38;;;;;;;2.33;1.67;;;9.30;99.90;;;;;;6227153;23;20384;-83
2024/01/24 06:40:09;;;;;;;4.97;4.00;;;9.30;99.90;;;;;;6227309;23;20496;-83
2024/01/24 06:42:36;;;;;;;2.27;1.50;;;9.30;99.90;;;;;;6227204;23;20391;-84
2024/01/24 06:45:06;;;;;;;2.53;1.63;;;9.40;99.90;;;;;;6226610;23;20433;-85
2024/01/24 06:47:33;;;;;;;5.40;1.60;;;9.40;99.90;;;;;;6227406;23;20469;-84
2024/01/24 06:49:59;;;;;;;2.60;1.53;;;9.50;99.80;;;;;;6230235;23;20823;-83
2024/01/24 06:52:28;;;;;;;3.33;2.03;;;9.50;93.90;;;;;;6226684;23;20481;-84
2024/01/24 06:54:57;;;;;;;3.00;1.90;;;9.50;93.60;;;;;;6228481;23;20405;-83
2024/01/24 06:57:24;;;;;;;3.17;1.93;;;9.50;85.90;;;;;;6230268;23;20406;-83
2024/01/24 06:59:51;;;;;;;1.80;1.20;;;9.60;86.20;;;;;;6229821;23;20462;-84
2024/01/24 07:02:18;;;;;;;2.20;1.90;;;9.70;91.50;;;;;;6239425;23;20402;-84
2024/01/24 07:04:44;;;;;;;1.37;1.27;;;9.70;91.10;;;;;;6233836;23;20437;-84
2024/01/24 07:07:14;;;;;;;2.10;1.47;;;9.60;96.00;;;;;;6233137;23;20433;-84
2024/01/24 07:09:41;;;;;;;1.57;1.23;;;9.70;99.90;;;;;;6231240;23;20387;-83
2024/01/24 07:12:09;;;;;;;4.00;1.73;;;9.70;99.90;;;;;;6229479;23;20404;-84
2024/01/24 07:14:36;;;;;;;2.80;1.33;;;9.80;99.90;;;;;;6228974;23;20430;-83
2024/01/24 07:17:05;;;;;;;4.07;1.10;;;9.50;99.90;;;;;;6228035;23;20381;-84
2024/01/24 07:19:32;;;;;;;1.90;1.00;;;9.20;99.90;;;;;;6202518;23;20430;-83
2024/01/24 07:21:59;;;;;;;1.73;0.90;;;9.00;99.90;;;;;;6227009;23;20413;-84
2024/01/24 07:24:25;;;;;;;1.60;1.13;;;8.90;99.90;;;;;;6226437;23;20401;-83
2024/01/24 07:26:52;;;;;;;2.37;0.93;;;8.90;99.90;;;;;;6225125;23;20430;-83
2024/01/24 07:29:21;;;;;;;1.63;0.90;;;8.90;99.90;;;;;;6235134;23;20398;-83
2024/01/24 07:31:47;;;;;;;3.10;1.33;;;9.00;99.90;;;;;;6238226;23;20513;-83
2024/01/24 07:34:14;;;;;;;2.30;1.47;;;9.00;99.90;;;;;;6232408;23;20438;-82
2024/01/24 07:36:41;;;;;;;10.10;5.40;;;9.10;99.90;;;;;;6228452;23;20750;-82
2024/01/24 07:39:08;;;;;;;7.00;1.70;;;9.10;99.90;;;;;;6228317;23;20434;-83
2024/01/24 07:41:35;;;;;;;4.93;2.13;;;9.10;99.90;;;;;;6229935;23;20448;-82
2024/01/24 07:44:02;;;;;;;6.60;2.97;;;9.20;99.90;;;;;;6227066;23;20481;-83
2024/01/24 07:46:32;;;;;;;8.63;3.63;;;9.10;99.90;;;;;;6226450;23;20431;-83
2024/01/24 07:48:59;;;;;;;4.87;3.50;;;9.10;99.90;;;;;;6229296;23;20411;-84
2024/01/24 07:51:26;;;;;;;6.90;3.10;;;9.10;99.90;;;;;;6227378;23;20477;-83
2024/01/24 07:53:53;;;;;;;9.47;2.73;;;9.00;99.90;;;;;;6224378;23;20449;-83
2024/01/24 07:56:20;;;;;;;8.33;2.20;;;9.10;99.90;;;;;;6224301;23;20465;-83
2024/01/24 07:58:47;;;;;;;8.97;4.37;;;9.00;99.90;;;;;;6223765;23;20396;-84
2024/01/24 08:01:15;;;;;;;9.47;3.03;;;9.10;99.90;;;;;;6223737;23;20472;-83
2024/01/24 08:03:45;;;;;;;9.50;3.37;;;9.10;99.90;;;;;;6225019;23;20430;-82
2024/01/24 08:06:11;;;;;;;5.20;3.03;;;9.10;99.90;;;;;;6226572;23;20454;-84
2024/01/24 08:08:38;;;;;;;7.40;2.57;;;9.10;99.90;;;;;;6222481;23;20470;-84
2024/01/24 08:11:05;;;;;;;6.03;3.40;;;9.10;99.90;;;;;;6222855;23;20455;-83
2024/01/24 08:13:34;;;;;;;6.87;2.90;;;9.10;99.90;;;;;;6222966;23;20416;-83
2024/01/24 08:16:01;;;;;;;6.40;2.93;;;9.10;99.90;;;;;;6227555;23;20441;-83
2024/01/24 08:18:27;;;;;;;4.17;2.60;;;9.20;99.90;;;;;;6236571;23;20417;-82
2024/01/24 08:20:55;;;;;;;13.27;3.27;;;9.10;99.90;;;;;;6237023;23;20420;-82
2024/01/24 08:23:22;;;;;;;9.73;4.70;;;9.10;99.90;;;;;;6236856;23;20498;-81
2024/01/24 08:25:49;;;;;;;7.97;2.20;;;9.10;99.90;;;;;;6236703;23;20381;-82
2024/01/24 08:28:16;;;;;;;6.20;2.50;;;9.10;99.90;;;;;;6237802;23;20406;-82
2024/01/24 08:30:43;;;;;;;8.20;2.47;;;9.10;99.90;;;;;;6228510;23;20405;-83
2024/01/24 08:33:10;;;;;;;4.23;2.43;;;9.10;99.90;;;;;;6228155;23;20438;-83
2024/01/24 08:35:37;;;;;;;4.50;2.43;;;9.20;99.90;;;;;;6228522;23;20413;-83
2024/01/24 08:38:05;;;;;;;11.00;2.43;;;9.30;99.90;;;;;;6233357;23;20434;-82
2024/01/24 08:40:32;;;;;;;6.43;2.47;;;9.30;99.90;;;;;;6227714;23;20438;-82
2024/01/24 08:42:59;;;;;;;7.00;2.60;;;9.40;87.10;;;;;;6225308;23;20420;-83
2024/01/24 08:45:26;;;;;;;4.53;2.30;;;9.60;1.00;;;;;;6224904;23;20490;-83
2024/01/24 08:47:53;;;;;;;4.60;2.50;;;9.70;1.00;;;;;;6225398;23;20475;-83
2024/01/24 08:50:22;;;;;;;8.63;2.47;;;9.80;1.00;;;;;;6224859;23;20377;-82
2024/01/24 08:52:49;;;;;;;13.83;2.57;;;9.80;1.00;;;;;;6232994;23;20393;-82
2024/01/24 08:55:18;;;;;;;7.87;2.30;;;9.80;1.00;;;;;;6241361;23;20405;-82
2024/01/24 08:57:44;;;;;;;2.80;1.70;;;9.90;1.00;;;;;;6237956;23;20414;-82
2024/01/24 09:00:12;;;;;;;3.13;1.83;;;9.80;1.00;;;;;;6227891;23;20469;-82
2024/01/24 09:02:39;;;;;;;8.23;2.43;;;9.80;1.00;;;;;;6225448;23;20414;-83
2024/01/24 11:17:11;;;;;;;17.00;4.53;;;10.80;99.90;;;;;;6139428;23;20893;-91
2024/01/24 11:29:42;;;;;;;7.30;3.50;;;10.80;99.90;;;;;;6223202;23;20402;-83
2024/01/24 11:32:09;;;;;;;13.40;3.00;;;10.80;99.90;;;;;;6235896;23;20406;-82
2024/01/24 11:34:38;;;;;;;16.23;3.77;;;10.90;99.90;;;;;;6226009;23;20416;-82
2024/01/24 11:37:06;;;;;;;11.57;3.83;;;10.80;99.90;;;;;;6224854;23;20402;-82
2024/01/24 11:39:33;;;;;;;10.83;3.20;;;10.90;99.90;;;;;;6225232;23;20402;-83
2024/01/24 11:42:36;;;;;;;8.00;2.90;;;11.00;1.00;;;;;;6226650;23;20493;-83
2024/01/24 11:45:18;;;;;;;11.50;3.13;;;11.10;4.80;;;;;;6232185;23;20437;-82
2024/01/24 11:47:45;;;;;;;13.37;4.83;;;11.20;1.00;;;;;;6233670;23;20798;-82
2024/01/24 11:50:12;;;;;;;14.97;3.73;;;11.20;1.00;;;;;;6233153;23;20388;-82
2024/01/24 11:52:39;;;;;;;14.97;4.00;;;11.20;1.00;;;;;;6235538;23;20402;-81
2024/01/24 11:55:07;;;;;;;8.10;2.83;;;11.20;1.00;;;;;;6234063;23;20403;-82
2024/01/24 11:57:35;;;;;;;10.73;3.23;;;11.20;1.00;;;;;;6233498;23;20426;-82
2024/01/24 12:00:02;;;;;;;7.80;3.23;;;11.10;1.00;;;;;;6234198;23;20410;-83
2024/01/24 12:02:30;;;;;;;13.53;3.70;;;11.10;1.00;;;;;;6230665;23;20437;-82
2024/01/24 12:04:57;;;;;;;6.73;3.37;;;11.10;99.90;;;;;;6226223;23;20410;-84
2024/01/24 12:07:24;;;;;;;10.13;3.10;;;11.10;99.90;;;;;;6224732;23;20504;-83
2024/01/24 12:09:52;;;;;;;11.73;3.37;;;11.10;99.90;;;;;;6232501;23;20377;-82
2024/01/24 12:12:20;;;;;;;8.43;2.83;;;11.00;99.90;;;;;;6242288;23;20390;-82
2024/01/24 12:14:47;;;;;;;9.07;3.50;;;11.10;99.90;;;;;;6238498;23;20406;-83
2024/01/24 12:17:14;;;;;;;7.90;2.80;;;11.10;99.90;;;;;;6230147;23;20409;-82
2024/01/24 12:19:45;;;;;;;13.53;3.20;;;11.10;99.90;;;;;;6228839;23;20437;-82
2024/01/24 12:22:13;;;;;;;11.07;3.97;;;11.00;99.90;;;;;;6228914;23;20435;-83
2024/01/24 12:24:40;;;;;;;9.60;3.57;;;11.10;99.90;;;;;;6227718;23;20754;-84
2024/01/24 12:27:08;;;;;;;8.80;2.83;;;11.10;99.90;;;;;;6225975;23;20412;-83
2024/01/24 12:29:35;;;;;;;13.93;3.90;;;11.20;99.90;;;;;;6224394;23;20457;-83
2024/01/24 12:32:05;;;;;;;12.20;3.30;;;11.20;99.90;;;;;;6223182;23;20481;-82
2024/01/24 12:34:32;;;;;;;9.00;3.23;;;11.10;99.90;;;;;;6233244;23;20406;-83
2024/01/24 12:37:00;;;;;;;11.10;4.00;;;11.20;99.90;;;;;;6234978;23;20715;-82
2024/01/24 12:39:29;;;;;;;21.83;3.23;;;11.10;99.90;;;;;;6225831;23;20790;-83
2024/01/24 12:41:55;;;;;;;10.60;3.43;;;11.10;99.90;;;;;;6225044;23;20446;-83
2024/01/24 12:44:22;;;;;;;8.33;3.60;;;11.10;99.90;;;;;;6226508;23;20402;-83
2024/01/24 12:46:58;;;;;;;8.97;3.00;;;11.10;99.90;;;;;;6225340;23;20445;-82
2024/01/24 12:49:26;;;;;;;12.33;4.20;;;11.00;99.90;;;;;;6230459;23;20465;-83
2024/01/24 12:51:54;;;;;;;12.37;3.67;;;11.00;99.90;;;;;;6229248;23;20405;-84
2024/01/24 12:54:24;;;;;;;13.13;3.53;;;11.10;99.90;;;;;;6226971;23;20449;-83
2024/01/24 12:56:51;;;;;;;12.87;3.97;;;11.10;99.90;;;;;;6226694;23;20410;-83
2024/01/24 12:59:18;;;;;;;9.80;4.67;;;11.00;99.90;;;;;;6232392;23;21012;-83
2024/01/24 13:01:45;;;;;;;13.80;6.43;;;11.10;99.90;;;;;;6223919;23;20447;-83
2024/01/24 13:04:12;;;;;;;11.87;4.30;;;11.00;99.90;;;;;;6225676;23;20406;-83
2024/01/24 13:06:40;;;;;;;8.23;3.80;;;11.10;99.90;;;;;;6227094;23;20492;-83
2024/01/24 13:09:08;;;;;;;14.20;3.30;;;11.10;99.90;;;;;;6224518;23;20496;-82
2024/01/24 13:11:36;;;;;;;19.80;5.40;;;11.10;99.90;;;;;;6223555;23;20737;-82
2024/01/24 13:14:03;;;;;;;10.70;3.97;;;11.20;99.90;;;;;;6225128;23;20406;-83
2024/01/24 13:16:30;;;;;;;9.40;4.00;;;11.10;99.90;;;;;;6225095;23;20421;-83
2024/01/24 13:18:57;;;;;;;13.97;3.47;;;11.20;99.90;;;;;;6224690;23;20423;-83
2024/01/24 13:21:23;;;;;;;12.73;3.13;;;11.20;99.90;;;;;;6224906;23;20438;-82
2024/01/24 13:23:51;;;;;;;8.53;3.90;;;11.20;99.90;;;;;;6236912;23;20417;-82
2024/01/24 13:26:18;;;;;;;9.70;3.77;;;11.10;99.90;;;;;;6236192;23;20385;-82
2024/01/24 13:28:46;;;;;;;16.07;3.60;;;11.10;99.90;;;;;;6235344;23;20461;-82
2024/01/24 13:31:13;;;;;;;9.60;4.00;;;11.10;99.90;;;;;;6233593;23;20381;-82
2024/01/24 13:33:40;;;;;;;11.07;3.40;;;11.10;99.90;;;;;;6222911;23;20413;-83
2024/01/24 13:36:09;;;;;;;10.33;3.50;;;11.10;99.90;;;;;;6223851;23;20406;-84
2024/01/24 13:38:36;;;;;;;8.53;4.20;;;11.10;99.90;;;;;;6223527;23;20932;-82
2024/01/24 13:41:03;;;;;;;9.73;3.37;;;11.10;99.90;;;;;;6227398;23;20485;-83
2024/01/24 13:43:30;;;;;;;7.50;2.80;;;11.10;92.30;;;;;;6228315;23;20410;-82
2024/01/24 13:45:58;;;;;;;9.97;3.60;;;11.10;62.40;;;;;;6227466;23;20402;-83
2024/01/24 13:48:25;;;;;;;14.13;4.53;;;11.10;99.90;;;;;;6223500;23;20504;-84
2024/01/24 13:50:52;;;;;;;12.53;3.13;;;11.20;99.90;;;;;;6226138;23;20481;-83
2024/01/24 13:53:19;;;;;;;14.13;4.10;;;11.20;99.90;;;;;;6228933;23;20406;-82
2024/01/24 13:55:46;;;;;;;13.07;4.27;;;11.10;74.60;;;;;;6224370;23;20412;-82
2024/01/24 13:58:13;;;;;;;16.20;4.20;;;11.10;81.60;;;;;;6226478;23;20490;-82
2024/01/24 14:00:39;;;;;;;13.23;3.53;;;11.00;43.70;;;;;;6225821;23;20441;-83
2024/01/24 14:03:08;;;;;;;19.33;5.60;;;11.10;99.90;;;;;;6231959;23;20415;-82
2024/01/24 14:05:35;;;;;;;17.47;4.23;;;11.00;99.90;;;;;;6232423;23;20974;-83
2024/01/24 14:08:02;;;;;;;16.43;3.50;;;11.00;99.90;;;;;;6227153;23;20426;-82
2024/01/24 14:10:29;;;;;;;9.70;3.90;;;11.00;86.80;;;;;;6235066;23;20433;-82
2024/01/24 14:12:56;;;;;;;7.83;3.30;;;11.00;99.90;;;;;;6235519;23;20470;-83
2024/01/24 14:15:23;;;;;;;9.80;4.20;;;11.00;99.90;;;;;;6233044;23;20437;-83
2024/01/24 14:17:50;;;;;;;14.87;5.00;;;10.90;99.90;;;;;;6229257;23;20443;-83
2024/01/24 14:20:18;;;;;;;10.73;3.80;;;10.80;71.10;;;;;;6238567;23;20406;-82
2024/01/24 14:22:45;;;;;;;9.43;3.67;;;10.80;99.90;;;;;;6236821;23;20449;-82
2024/01/24 14:25:12;;;;;;;12.80;4.07;;;10.70;99.90;;;;;;6229562;23;20416;-83
2024/01/24 14:27:39;;;;;;;12.33;4.37;;;10.70;99.90;;;;;;6238293;23;20442;-83
2024/01/24 14:30:07;;;;;;;11.80;3.27;;;10.70;99.90;;;;;;6234363;23;20405;-83
2024/01/24 14:32:37;;;;;;;14.53;3.50;;;10.70;99.90;;;;;;6230570;23;20430;-84
2024/01/24 14:35:05;;;;;;;10.53;3.80;;;10.70;99.90;;;;;;6226278;23;20696;-83
2024/01/24 14:37:33;;;;;;;13.67;4.40;;;10.70;99.90;;;;;;6228040;23;20455;-83
2024/01/24 14:40:00;;;;;;;11.07;3.20;;;10.60;99.90;;;;;;6227284;23;20413;-83
2024/01/24 14:42:27;;;;;;;11.80;3.73;;;10.60;99.90;;;;;;6227543;23;20823;-84
2024/01/24 14:44:54;;;;;;;12.73;4.67;;;10.60;99.90;;;;;;6227444;23;20430;-86
2024/01/24 14:47:21;;;;;;;16.13;3.07;;;10.60;99.90;;;;;;6223405;23;20402;-84
2024/01/24 14:49:48;;;;;;;11.33;3.30;;;10.70;99.90;;;;;;6222990;23;20405;-85
2024/01/24 14:52:14;;;;;;;8.67;3.30;;;10.70;99.90;;;;;;6223901;23;20481;-85
2024/01/24 14:54:43;;;;;;;18.63;4.47;;;10.70;84.30;;;;;;6223567;23;20742;-84
2024/01/24 14:57:10;;;;;;;9.30;4.07;;;10.70;99.90;;;;;;6223498;23;20485;-84
2024/01/24 14:59:36;;;;;;;16.30;3.40;;;10.70;99.90;;;;;;6226987;23;20434;-85
2024/01/24 15:02:04;;;;;;;11.27;3.50;;;10.70;91.60;;;;;;6225320;23;20469;-85
2024/01/24 15:04:30;;;;;;;10.03;3.93;;;10.60;99.90;;;;;;6225788;23;20707;-84
2024/01/24 15:06:57;;;;;;;13.23;3.50;;;10.60;99.90;;;;;;6228036;23;20419;-84
2024/01/24 15:09:24;;;;;;;12.27;4.13;;;10.50;99.90;;;;;;6233469;23;20517;-83
2024/01/24 15:11:53;;;;;;;16.13;5.40;;;10.30;1.00;;;;;;6236365;23;20409;-84
2024/01/24 15:14:20;;;;;;;13.83;4.77;;;10.20;1.00;;;;;;6237099;23;20441;-84
2024/01/24 15:16:47;;;;;;;16.73;3.30;;;10.10;12.10;;;;;;6236532;23;20414;-85
2024/01/24 15:19:13;;;;;;;10.30;3.33;;;10.10;1.00;;;;;;6232937;23;20433;-84
2024/01/24 15:21:40;;;;;;;13.37;3.83;;;10.10;1.00;;;;;;6228271;23;20471;-84
2024/01/24 15:24:08;;;;;;;13.43;4.10;;;10.20;1.00;;;;;;6224073;23;20403;-85
2024/01/24 15:26:35;;;;;;;10.20;3.30;;;10.20;99.90;;;;;;6228145;22;20383;-82
2024/01/24 15:29:04;;;;;;;16.00;3.80;;;10.30;99.90;;;;;;6206140;23;20437;-84
2024/01/24 15:31:31;;;;;;;5.13;3.00;;;10.30;99.90;;;;;;6224778;23;20409;-84
2024/01/24 15:33:58;;;;;;;13.03;3.27;;;10.30;99.90;;;;;;6225882;23;20436;-84
2024/01/24 15:36:24;;;;;;;9.30;2.90;;;10.30;99.90;;;;;;6229217;23;20477;-84
2024/01/24 15:38:51;;;;;;;8.93;3.10;;;10.30;1.00;;;;;;6243379;22;20427;-83
2024/01/24 15:41:18;;;;;;;18.00;3.67;;;10.30;99.90;;;;;;6244740;22;20460;-83
2024/01/24 15:43:45;;;;;;;12.17;3.30;;;10.30;99.90;;;;;;6237151;23;20408;-84
2024/01/24 15:46:13;;;;;;;12.57;3.83;;;10.20;99.90;;;;;;6238310;23;20408;-84
2024/01/24 15:48:41;;;;;;;11.77;3.77;;;10.10;99.90;;;;;;6239079;23;20453;-83
2024/01/24 15:51:08;;;;;;;11.97;4.30;;;10.10;1.00;;;;;;6235200;23;20407;-83